MTN8060 TFFJ-TNCS
Flight info
| Callsign | MTN8060 |
|---|---|
| Flight time | 0h 10m |
| Altitude | 6000 |
| Route | DCT |
| Aircraft | C208/L-SDFGR/C |
Departure
| Time | 2026-04-20 02:24 |
|---|---|
| Airport | St. Jean Airport (TFFJ) |
Arrival
| Time | 2026-04-20 02:35 |
|---|---|
| Airport | Juancho E. Yrausquin Airport (TNCS) |
| Time | Latitude | Longitude | Altitude | Speed | Heading |
|---|---|---|---|---|---|
| 2026-04-20 02:11 | 17.90365 | -62.84587 | 52 ft | 0 kts | 180° |
| 2026-04-20 02:16 | 17.90363 | -62.84587 | 52 ft | 0 kts | 180° |
| 2026-04-20 02:16 | 17.90374 | -62.84587 | 52 ft | 0 kts | 181° |
| 2026-04-20 02:19 | 17.90372 | -62.84588 | 52 ft | 2 kts | 213° |
| 2026-04-20 02:20 | 17.90389 | -62.84614 | 53 ft | 7 kts | 297° |
| 2026-04-20 02:20 | 17.90395 | -62.84625 | 54 ft | 0 kts | 301° |
| 2026-04-20 02:22 | 17.90412 | -62.84648 | 55 ft | 9 kts | 322° |
| 2026-04-20 02:22 | 17.90431 | -62.84627 | 51 ft | 0 kts | 88° |
| 2026-04-20 02:22 | 17.90433 | -62.84582 | 48 ft | 28 kts | 89° |
| 2026-04-20 02:23 | 17.90443 | -62.84205 | 128 ft | 60 kts | 84° |
| 2026-04-20 02:23 | 17.90687 | -62.83896 | 300 ft | 70 kts | 13° |
| 2026-04-20 02:23 | 17.91169 | -62.84205 | 405 ft | 84 kts | 336° |
| 2026-04-20 02:23 | 17.91663 | -62.84561 | 446 ft | 88 kts | 338° |
| 2026-04-20 02:24 | 17.92227 | -62.84916 | 503 ft | 105 kts | 322° |
| 2026-04-20 02:24 | 17.92518 | -62.85720 | 590 ft | 136 kts | 271° |
| 2026-04-20 02:24 | 17.92421 | -62.86755 | 722 ft | 149 kts | 258° |
| 2026-04-20 02:24 | 17.91853 | -62.87683 | 872 ft | 155 kts | 222° |
| 2026-04-20 02:25 | 17.91101 | -62.88491 | 1027 ft | 159 kts | 224° |
| 2026-04-20 02:25 | 17.90393 | -62.89400 | 1233 ft | 162 kts | 227° |
| 2026-04-20 02:25 | 17.89686 | -62.90340 | 1436 ft | 165 kts | 227° |
| 2026-04-20 02:25 | 17.88941 | -62.91313 | 1472 ft | 176 kts | 227° |
| 2026-04-20 02:26 | 17.88149 | -62.92336 | 1481 ft | 184 kts | 227° |
| 2026-04-20 02:26 | 17.87331 | -62.93383 | 1508 ft | 187 kts | 226° |
| 2026-04-20 02:26 | 17.86489 | -62.94444 | 1513 ft | 190 kts | 226° |
| 2026-04-20 02:26 | 17.85635 | -62.95512 | 1507 ft | 191 kts | 228° |
| 2026-04-20 02:27 | 17.84780 | -62.96588 | 1509 ft | 192 kts | 228° |
| 2026-04-20 02:27 | 17.83922 | -62.97668 | 1509 ft | 193 kts | 227° |
| 2026-04-20 02:27 | 17.83063 | -62.98744 | 1482 ft | 192 kts | 226° |
| 2026-04-20 02:27 | 17.82211 | -62.99810 | 1485 ft | 189 kts | 227° |
| 2026-04-20 02:28 | 17.81364 | -63.00873 | 1508 ft | 190 kts | 227° |
| 2026-04-20 02:28 | 17.80514 | -63.01938 | 1505 ft | 191 kts | 225° |
| 2026-04-20 02:28 | 17.79666 | -63.03001 | 1502 ft | 189 kts | 225° |
| 2026-04-20 02:28 | 17.78819 | -63.04057 | 1497 ft | 189 kts | 226° |
| 2026-04-20 02:29 | 17.77967 | -63.05128 | 1486 ft | 192 kts | 226° |
| 2026-04-20 02:29 | 17.77124 | -63.06186 | 1482 ft | 190 kts | 226° |
| 2026-04-20 02:29 | 17.76278 | -63.07244 | 1500 ft | 188 kts | 226° |
| 2026-04-20 02:29 | 17.75435 | -63.08301 | 1496 ft | 190 kts | 225° |
| 2026-04-20 02:30 | 17.74574 | -63.09355 | 1488 ft | 190 kts | 226° |
| 2026-04-20 02:30 | 17.73768 | -63.10449 | 1489 ft | 190 kts | 234° |
| 2026-04-20 02:30 | 17.73109 | -63.11661 | 1503 ft | 192 kts | 239° |
| 2026-04-20 02:30 | 17.72502 | -63.12866 | 1488 ft | 180 kts | 240° |
| 2026-04-20 02:31 | 17.71964 | -63.14008 | 1488 ft | 171 kts | 240° |
| 2026-04-20 02:31 | 17.71472 | -63.15125 | 1479 ft | 166 kts | 242° |
| 2026-04-20 02:31 | 17.70991 | -63.16177 | 1477 ft | 154 kts | 241° |
| 2026-04-20 02:31 | 17.70524 | -63.17166 | 1451 ft | 152 kts | 241° |
| 2026-04-20 02:32 | 17.70062 | -63.18179 | 1312 ft | 156 kts | 241° |
| 2026-04-20 02:32 | 17.69593 | -63.19204 | 1165 ft | 154 kts | 242° |
| 2026-04-20 02:32 | 17.69102 | -63.20180 | 1062 ft | 148 kts | 241° |
| 2026-04-20 02:32 | 17.68626 | -63.21121 | 1017 ft | 143 kts | 240° |
| 2026-04-20 02:33 | 17.68156 | -63.21971 | 1004 ft | 130 kts | 224° |
| 2026-04-20 02:33 | 17.67502 | -63.22543 | 885 ft | 116 kts | 204° |
| 2026-04-20 02:33 | 17.66860 | -63.22993 | 717 ft | 107 kts | 204° |
| 2026-04-20 02:33 | 17.66247 | -63.23283 | 641 ft | 85 kts | 184° |
| 2026-04-20 02:34 | 17.65708 | -63.23356 | 623 ft | 75 kts | 161° |
| 2026-04-20 02:34 | 17.65240 | -63.23206 | 570 ft | 68 kts | 136° |
| 2026-04-20 02:34 | 17.64912 | -63.22850 | 425 ft | 67 kts | 120° |
| 2026-04-20 02:34 | 17.64685 | -63.22442 | 249 ft | 63 kts | 110° |
| 2026-04-20 02:35 | 17.64538 | -63.22045 | 133 ft | 52 kts | 114° |
| 2026-04-20 02:35 | 17.64485 | -63.21931 | 125 ft | 10 kts | 116° |
| 2026-04-20 02:35 | 17.64471 | -63.21906 | 122 ft | 2 kts | 85° |
| 2026-04-20 02:35 | 17.64491 | -63.21935 | 124 ft | 11 kts | 292° |
| 2026-04-20 02:36 | 17.64514 | -63.22018 | 131 ft | 12 kts | 244° |
| 2026-04-20 02:36 | 17.64470 | -63.22020 | 128 ft | 5 kts | 149° |
| 2026-04-20 02:36 | 17.64454 | -63.22021 | 130 ft | 0 kts | 205° |